الصفحة الرئيسية
METAR-TAF:

METAR-TAF

مطار :

ياكوتسك, روسيا

دائرة عرض: 62-01N, خط طول: 129-43E, ارتفاع: 103 متر

مراقبة الطقس الحالي

تاريخ ووقت الإصدار 41 دقيقة قبل الساعة 16:00UTC
ريح 10 عقدة من الغرب/الشمال الغربي
درجة الحرارة -6°درجة مئوية
الرطوبة 68%
ضغط 1003 hPa
الرؤية 10 كم أو أكثر
غيوم قليلة على ارتفاع 3000 قدم, مزنة ركامية.

METAR: UEEE 011600Z 30005MPS 9999 FEW030CB M06/M11 Q1003 R23L/450145 NOSIG RMK QFE743

زمن: 01:41 (16:41 UTC)

توقعات

تاريخ ووقت الإصدار 2ساعات و 41 دقيقة قبل الساعة 14:00UTC
التوقعات صالحة من01 الساعة 15 UTC إلى 02 الساعة 21 UTC
ريح 16 عقدة من الشمال الغربي تتزايد حتى 27 عقدة
الرؤية: 3200 متر
غيوم مفككة على ارتفاع 1700 قدم, مزنة ركامية.
ملبد بالغيوم على ارتفاع 7000 قدم
زخات ثلجية خفيفة, انخفاض الانجراف الثلوج
مؤقت
من 01 الساعة 15 UTC إلى 02 الساعة 03 UTC
الرؤية: 0500 متر
على ارتفاع 300 قدم
زخات ثلجية غزيرة, هبوب الثلوج

TAF: UEEE 011400Z 0115/0221 31008G14MPS 3200 -SHSN DRSN BKN017CB OVC070 TEMPO 0115/0203 0500 +SHSN BLSN VV003

أرصاد الطقس والتوقعات من أكثر من 4000 مطار (تقارير الطقس للمطار METAR والتنبؤ بالطقس بالمطارTAF).

المحطات المتاحة هي النقط الصفراء والحمراء على الخريطة.

حرك المؤشر فوق النقطة لمعرفة اسم المحطة.

ثم انقر لمعرفة أرصاد وتوقعات الطقس.

لتغيير الخارطة: اضغط على الأزرار الخضراء مع رمز الصليب الأسود للتكبير. على الزر الأخضر مع شرطة للتصغير، أو على الأسهم الخضراء للخرائط المجاورة.


METAR-TAF: